Flight Track Log - Related Links

Times and Time Zones

All times are in EDT time to prevent confusion due to time zone crossing. See the SKW5516 flight status page for this flight to view local times or setup timezone preferences in your user account.


Time Position Orientation Groundspeed Altitude Reporting Facility
EDT Latitude Longitude Course Direction KTS MPH feet Rate Location/Type
Fri 07:31:00 PM 37.2897 -121.9970 138° Southeast  Level Estimated
Fri 07:32:00 PM 37.2072 -121.9030 138° Southeast  Level Estimated
Fri 07:33:00 PM 37.1246 -121.8091 138° Southeast  Level Estimated
Fri 07:34:00 PM 37.0419 -121.7155 138° Southeast  Level Estimated
Fri 07:35:00 PM 36.9592 -121.6221 138° Southeast  Level Estimated
Fri 07:36:00 PM 36.8763 -121.5288 138° Southeast  Level Estimated
Fri 07:37:00 PM 36.7934 -121.4358 138° Southeast  Level Estimated
Fri 07:38:00 PM 36.7105 -121.3430 138° Southeast  Level Estimated
Fri 07:39:00 PM 36.6274 -121.2504 138° Southeast  Level Estimated
Fri 07:40:00 PM 36.5443 -121.1580 138° Southeast  Level Estimated
Fri 07:41:00 PM 36.4611 -121.0657 138° Southeast  Level Estimated
Fri 07:42:00 PM 36.3779 -120.9737 138° Southeast  Level Estimated
Fri 07:43:00 PM 36.2945 -120.8819 138° Southeast  Level Estimated
Fri 07:44:00 PM 36.2111 -120.7902 138° Southeast  Level Estimated
Fri 07:45:00 PM 36.1277 -120.6988 138° Southeast  Level Estimated
Fri 07:46:00 PM 36.0441 -120.6076 139° Southeast  Level Estimated
Fri 07:47:00 PM 35.9605 -120.5165 139° Southeast  Level Estimated
Fri 07:48:00 PM 35.8769 -120.4257 139° Southeast  Level Estimated
Fri 07:49:00 PM 35.7931 -120.3350 139° Southeast  Level Estimated
Fri 07:50:00 PM 35.7093 -120.2445 139° Southeast  Level Estimated
Fri 07:51:00 PM 35.6254 -120.1542 139° Southeast  Level Estimated
Fri 07:52:00 PM 35.5415 -120.0641 139° Southeast  Level Estimated
Fri 07:53:00 PM 35.4575 -119.9742 139° Southeast  Level Estimated
Fri 07:54:00 PM 35.3734 -119.8845 139° Southeast  Level Estimated
Fri 07:55:00 PM 35.2893 -119.7950 139° Southeast  Level Estimated
Fri 07:56:00 PM 35.2051 -119.7056 139° Southeast  Level Estimated
Fri 07:57:00 PM 35.1208 -119.6165 139° Southeast  Level Estimated
Fri 07:58:00 PM 35.0364 -119.5275 139° Southeast  Level Estimated
Fri 07:59:00 PM 34.9520 -119.4387 139° Southeast  Level Estimated
Fri 08:00:00 PM 34.8676 -119.3501 139° Southeast  Level Estimated
Fri 08:01:00 PM 34.7830 -119.2617 139° Southeast  Level Estimated
Fri 08:02:00 PM 34.6984 -119.1734 139° Southeast  Level Estimated
Fri 08:03:00 PM 34.6138 -119.0853 139° Southeast  Level Estimated
Fri 08:04:00 PM 34.5291 -118.9974 139° Southeast  Level Estimated
Fri 08:05:00 PM 34.4443 -118.9097 140° Southeast  Level Estimated
Fri 08:06:00 PM 34.3594 -118.8222 140° Southeast  Level Estimated
Fri 08:07:00 PM 34.2745 -118.7348 140° Southeast  Level Estimated
Fri 08:08:00 PM 34.1895 -118.6477 140° Southeast  Level Estimated
Fri 08:09:00 PM 34.1045 -118.5607 140° Southeast  Level Estimated
Fri 08:10:00 PM 34.0194 -118.4738 140° Southeast  Level Estimated
Fri 08:11:00 PM 33.9342 -118.3872 140° Southeast  Level Estimated
Fri 08:12:00 PM 33.8490 -118.3007 140° Southeast  Level Estimated
Fri 08:13:00 PM 33.7637 -118.2144 140° Southeast  Level Estimated
Fri 08:14:00 PM 33.6784 -118.1283 140° Southeast  Level Estimated
Fri 08:15:00 PM 33.5930 -118.0423 140° Southeast  Level Estimated
Fri 08:16:00 PM 33.5075 -117.9565 140° Southeast  Level Estimated
Fri 08:17:00 PM 33.4220 -117.8709 140° Southeast  Level Estimated
Fri 08:18:00 PM 33.3364 -117.7854 140° Southeast  Level Estimated
Fri 08:19:00 PM 33.2508 -117.7001 140° Southeast  Level Estimated
Fri 08:20:00 PM 33.1651 -117.6150 140° Southeast  Level Estimated
Fri 08:21:00 PM 33.0794 -117.5301 140° Southeast  Level Estimated
Fri 08:22:00 PM 32.9936 -117.4453 140° Southeast  Level Estimated
Fri 08:23:00 PM 32.9077 -117.3606 140° Southeast  Level Estimated
Fri 08:24:00 PM 32.8218 -117.2762 140° Southeast  Level Estimated
Fri 08:25:00 PM 32.7358 -117.1919 140° Southeast  Level Estimated
Fri 08:26:00 PM 32.7336 -117.1897 140° Southeast  Level Estimated
Fri 08:27:00 PM 32.7336 -117.1897 148° Southeast  Level Estimated
Fri 08:28:00 PM 32.7336 -117.1897 148° Southeast  Level Estimated
Fri 08:29:00 PM 32.7336 -117.1897 148° Southeast  Level Estimated
Fri 08:30:00 PM 32.7336 -117.1897 148° Southeast  Level Estimated
Fri 08:31:00 PM 32.7336 -117.1897 148° Southeast  Level Estimated
Fri 08:32:00 PM 32.7336 -117.1897 148° Southeast  Level Estimated
Fri 08:33:00 PM 32.7336 -117.1897 148° Southeast  Level Estimated
Fri 08:34:00 PM 32.7336 -117.1897 148° Southeast  Level Estimated
Fri 08:35:00 PM 32.7336 -117.1897 148° Southeast  Level Estimated
Fri 08:36:00 PM 32.7336 -117.1897 148° Southeast  Level Estimated
Fri 08:37:00 PM 32.7336 -117.1897 148° Southeast  Level Estimated
Fri 08:38:00 PM 32.7336 -117.1897 148° Southeast  Level Estimated

Login

Don't have an account? Register now (free) for customized features, flight alerts, and more!